Time;durP1;ratioP1;P1;durP2;ratioP2;P2;SDS_P1;SDS_P2;PMS_P1;PMS_P2;Temp;Humidity;BMP_temperature;BMP_pressure;BME280_temperature;BME280_humidity;BME280_pressure;Samples;Min_cycle;Max_cycle;Signal;HPM_P1;HPM_P2
2022/09/20 00:00:41;;;;;;;13.45;6.30;;;;;;;8.58;100.00;67727.78;4967432;28;20062;-83
2022/09/20 00:03:07;;;;;;;23.00;10.57;;;;;;;8.53;100.00;67721.53;4963252;28;20142;-83
2022/09/20 00:05:34;;;;;;;19.83;8.45;;;;;;;;;;4963342;28;20498;-84
2022/09/20 00:07:59;;;;;;;10.10;4.68;;;;;;;8.39;100.00;67705.69;4962432;28;20566;-83
2022/09/20 00:10:25;;;;;;;9.73;2.50;;;;;;;;;;4965746;28;20045;-84
2022/09/20 00:12:51;;;;;;;11.32;2.97;;;;;;;8.37;100.00;67698.66;4963342;28;20053;-84
2022/09/20 00:15:16;;;;;;;7.40;2.33;;;;;;;8.32;100.00;67693.56;4963954;28;20039;-82
2022/09/20 00:17:42;;;;;;;15.75;2.85;;;;;;;8.30;100.00;67691.28;4964427;28;20035;-84
2022/09/20 00:20:08;;;;;;;12.70;2.70;;;;;;;8.35;100.00;67696.97;4966349;28;20102;-84
2022/09/20 00:22:33;;;;;;;9.25;2.95;;;;;;;;;;4965393;28;20797;-84
2022/09/20 00:24:58;;;;;;;7.60;2.70;;;;;;;;;;4965331;28;20186;-84
2022/09/20 00:27:23;;;;;;;11.68;3.28;;;;;;;8.42;100.00;67704.34;4954585;28;20142;-83
2022/09/20 00:29:49;;;;;;;10.23;2.80;;;;;;;8.36;100.00;67697.53;4947409;28;20073;-82
2022/09/20 00:32:14;;;;;;;11.55;3.28;;;;;;;;;;4964201;28;20074;-82
2022/09/20 00:37:23;;;;;;;7.72;2.55;;;;;;;8.30;100.00;67696.59;4967644;28;20545;-83
2022/09/20 00:39:49;;;;;;;10.30;3.17;;;;;;;8.29;100.00;67690.16;4968410;28;20070;-82
2022/09/20 00:42:14;;;;;;;13.52;3.80;;;;;;;8.26;100.00;67691.50;4967915;28;20114;-82
2022/09/20 00:44:52;;;;;;;12.60;3.25;;;;;;;8.21;100.00;67685.84;4967275;28;20074;-82
2022/09/20 00:47:23;;;;;;;11.15;3.50;;;;;;;;;;4968337;28;20643;-84
2022/09/20 00:49:58;;;;;;;8.95;2.92;;;;;;;8.10;100.00;67673.94;4967231;28;20042;-84
2022/09/20 00:52:25;;;;;;;9.55;3.08;;;;;;;8.08;100.00;67671.66;4968473;28;20560;-83
2022/09/20 00:54:52;;;;;;;11.07;3.13;;;;;;;8.08;100.00;67671.66;4971815;28;20043;-84
2022/09/20 00:57:18;;;;;;;12.43;3.50;;;;;;;7.99;100.00;67661.47;4965210;28;20121;-84
2022/09/20 00:59:48;;;;;;;10.05;3.30;;;;;;;7.91;100.00;67652.97;4965798;28;20403;-83
2022/09/20 01:02:21;;;;;;;7.57;3.40;;;;;;;;;;4971511;28;20493;-84
2022/09/20 01:04:47;;;;;;;9.60;3.42;;;;;;;;;;4963675;28;20383;-84
2022/09/20 01:07:13;;;;;;;11.65;4.00;;;;;;;;;;4960549;28;20071;-82
2022/09/20 01:09:39;;;;;;;11.23;3.70;;;;;;;;;;4964092;28;20046;-84
2022/09/20 01:12:11;;;;;;;12.60;4.63;;;;;;;7.97;100.00;67651.84;4967197;28;20414;-82
2022/09/20 01:14:36;;;;;;;10.63;3.92;;;;;;;7.87;100.00;67649.03;4984111;28;20059;-82
2022/09/20 01:17:04;;;;;;;11.45;3.33;;;;;;;7.91;100.00;67653.56;4993260;28;20185;-81
2022/09/20 01:19:52;;;;;;;10.32;3.92;;;;;;;7.92;100.00;67654.13;4995569;28;20129;-81
2022/09/20 01:22:36;;;;;;;9.63;3.80;;;;;;;7.97;100.00;67659.22;4960715;28;20019;-81
2022/09/20 01:25:16;;;;;;;8.57;3.20;;;;;;;7.95;100.00;67652.22;4962664;28;20043;-83
2022/09/20 01:27:41;;;;;;;;;;;;;;;7.89;100.00;67650.72;4951826;28;20046;-84
2022/09/20 01:30:11;;;;;;;7.43;3.30;;;;;;;7.82;100.00;67638.06;4964845;28;19921;-84
2022/09/20 01:32:55;;;;;;;9.00;3.42;;;;;;;7.88;100.00;67655.47;4951522;28;20052;-84
2022/09/20 01:35:25;;;;;;;11.00;3.50;;;;;;;7.89;100.00;67650.72;4969017;28;20486;-84
2022/09/20 01:38:14;;;;;;;14.45;3.33;;;;;;;;;;4971028;28;20114;-81
2022/09/20 01:40:39;;;;;;;11.23;4.43;;;;;;;7.95;100.00;67657.53;4969601;28;20049;-83
2022/09/20 01:43:25;;;;;;;8.35;4.10;;;;;;;7.99;100.00;67661.47;4970180;28;20046;-84
2022/09/20 01:45:51;;;;;;;12.05;3.30;;;;;;;7.88;100.00;67652.81;4969630;28;20070;-84
2022/09/20 01:48:41;;;;;;;11.50;3.05;;;;;;;7.90;100.00;67647.13;4968789;28;20074;-83
2022/09/20 01:51:15;;;;;;;8.70;3.78;;;;;;;7.92;100.00;67648.84;4958064;28;20073;-81
2022/09/20 01:54:10;;;;;;;13.68;3.55;;;;;;;7.86;100.00;67647.91;4969300;28;20047;-83
2022/09/20 01:56:35;;;;;;;10.45;3.67;;;;;;;;;;4963669;28;20051;-82
2022/09/20 01:59:12;;;;;;;9.67;3.40;;;;;;;7.83;100.00;67644.50;4949144;28;20058;-82
2022/09/20 02:01:52;;;;;;;10.40;3.35;;;;;;;7.89;100.00;67650.72;4947176;28;20361;-82
2022/09/20 02:04:37;;;;;;;11.35;4.38;;;;;;;7.87;100.00;67648.47;4961852;28;20058;-82
2022/09/20 02:07:11;;;;;;;11.23;4.15;;;;;;;7.82;100.00;67637.50;4967955;28;20098;-82
2022/09/20 02:10:11;;;;;;;15.43;4.13;;;;;;;7.82;100.00;67634.84;4968586;28;20039;-83
2022/09/20 02:12:48;;;;;;;7.05;3.13;;;;;;;7.76;100.00;67636.00;4950811;28;20628;-83
2022/09/20 02:15:17;;;;;;;10.15;3.97;;;;;;;;;;4953051;28;20045;-83
2022/09/20 02:18:15;;;;;;;10.10;3.60;;;;;;;7.67;100.00;67626.38;4949237;28;20045;-82
2022/09/20 02:20:55;;;;;;;10.48;3.50;;;;;;;7.53;100.00;67611.09;4968547;28;20270;-83
2022/09/20 02:23:29;;;;;;;8.63;3.50;;;;;;;;;;4961519;28;20050;-83
2022/09/20 02:26:09;;;;;;;11.93;3.63;;;;;;;7.70;100.00;67629.78;4963481;28;20766;-83
2022/09/20 02:28:41;;;;;;;9.20;4.10;;;;;;;7.70;100.00;67629.78;4967847;28;20065;-81
2022/09/20 02:31:27;;;;;;;10.52;3.75;;;;;;;7.67;100.00;67626.38;4966628;28;20051;-82
2022/09/20 02:34:07;;;;;;;10.40;3.78;;;;;;;7.52;100.00;67609.97;4969099;28;20038;-81
2022/09/20 02:37:02;;;;;;;10.07;3.70;;;;;;;7.52;100.00;67609.41;4967587;28;20041;-83
2022/09/20 02:39:35;;;;;;;11.73;3.38;;;;;;;7.53;100.00;67611.09;4968096;28;20085;-84
2022/09/20 02:42:20;;;;;;;10.02;3.50;;;;;;;7.55;100.00;67612.81;4968452;28;20602;-83
2022/09/20 02:44:57;;;;;;;9.57;3.85;;;;;;;7.52;100.00;67604.69;4963837;28;20039;-82
2022/09/20 02:47:41;;;;;;;10.60;4.00;;;;;;;7.52;100.00;67609.41;4946731;28;20469;-83
2022/09/20 02:50:09;;;;;;;13.95;4.72;;;;;;;;;;4968680;28;20050;-83
2022/09/20 02:52:48;;;;;;;9.50;3.70;;;;;;;7.59;100.00;67617.88;4969749;28;20053;-83
2022/09/20 02:55:31;;;;;;;12.32;4.50;;;;;;;7.63;100.00;67621.88;4948796;28;20126;-82
2022/09/20 02:58:14;;;;;;;9.95;4.28;;;;;;;7.61;100.00;67614.88;4969397;28;20046;-82
2022/09/20 03:00:52;;;;;;;10.07;4.90;;;;;;;7.65;100.00;67624.13;4963556;28;20043;-82
2022/09/20 03:03:25;;;;;;;13.55;4.80;;;;;;;;;;4942786;28;20141;-82
2022/09/20 03:06:05;;;;;;;10.73;4.22;;;;;;;;;;4965044;28;20130;-83
2022/09/20 03:08:31;;;;;;;12.60;4.68;;;;;;;7.53;100.00;67605.81;4968093;28;20047;-84
2022/09/20 03:11:09;;;;;;;7.30;4.57;;;;;;;;;;4969190;28;20042;-82
2022/09/20 03:13:49;;;;;;;9.30;4.60;;;;;;;7.41;100.00;67598.09;4969459;28;20439;-82
2022/09/20 03:16:24;;;;;;;12.18;5.47;;;;;;;7.40;100.00;67596.41;4965241;28;20105;-83
2022/09/20 03:19:14;;;;;;;8.80;4.05;;;;;;;7.43;100.00;67599.78;4965722;28;20098;-83
2022/09/20 03:21:52;;;;;;;12.75;4.50;;;;;;;7.40;100.00;67591.09;4988475;28;20054;-83
2022/09/20 03:24:17;;;;;;;14.52;5.07;;;;;;;7.47;100.00;67599.00;4951694;28;20054;-83
2022/09/20 03:26:58;;;;;;;14.95;5.53;;;;;;;7.50;100.00;67607.16;4967691;28;20050;-82
2022/09/20 03:29:29;;;;;;;13.88;5.50;;;;;;;7.55;100.00;67612.81;4964749;28;20070;-82
2022/09/20 03:32:03;;;;;;;10.07;5.15;;;;;;;7.57;100.00;67609.78;4969171;28;20693;-81
2022/09/20 03:34:51;;;;;;;7.70;5.13;;;;;;;;;;4964369;28;20109;-84
2022/09/20 03:37:28;;;;;;;15.35;6.22;;;;;;;7.54;100.00;67614.91;4946626;28;20513;-83
2022/09/20 03:40:14;;;;;;;12.15;5.88;;;;;;;7.59;100.00;67617.31;4946727;28;20049;-85
2022/09/20 03:42:47;;;;;;;18.83;6.82;;;;;;;;;;4967649;28;20054;-82
2022/09/20 03:45:22;;;;;;;12.32;6.03;;;;;;;7.65;100.00;67624.13;4952295;28;20051;-84
2022/09/20 03:48:03;;;;;;;17.35;6.40;;;;;;;7.69;100.00;67631.88;4956294;28;20050;-82
2022/09/20 03:50:31;;;;;;;13.45;6.50;;;;;;;7.72;100.00;67634.69;4966614;28;20046;-83
2022/09/20 03:53:30;;;;;;;17.53;7.03;;;;;;;7.67;100.00;67626.38;4968792;28;20051;-84
2022/09/20 03:56:14;;;;;;;11.93;6.17;;;;;;;;;;4961681;28;20650;-84
2022/09/20 03:58:58;;;;;;;13.55;6.38;;;;;;;;;;4949262;28;20599;-83
2022/09/20 04:01:44;;;;;;;14.63;7.28;;;;;;;;;;4981225;28;20043;-84
2022/09/20 04:04:35;;;;;;;15.48;6.72;;;;;;;7.72;100.00;67631.50;4965034;28;20070;-84
2022/09/20 04:07:27;;;;;;;15.02;7.25;;;;;;;7.78;100.00;67633.53;4966320;28;20046;-82
2022/09/20 04:10:01;;;;;;;13.73;7.47;;;;;;;;;;4967182;28;20037;-82
2022/09/20 04:12:47;;;;;;;16.60;7.32;;;;;;;7.79;100.00;67639.97;4969004;28;20063;-83
2022/09/20 04:15:24;;;;;;;14.93;7.47;;;;;;;;;;4981637;28;20519;-84
2022/09/20 04:18:05;;;;;;;15.15;7.60;;;;;;;7.83;100.00;67644.50;4968431;28;20149;-84
2022/09/20 04:20:42;;;;;;;15.25;7.90;;;;;;;7.81;100.00;67644.31;4954032;28;20486;-85
2022/09/20 04:23:26;;;;;;;17.70;7.97;;;;;;;;;;4968754;28;20046;-83
2022/09/20 04:25:51;;;;;;;16.15;8.25;;;;;;;7.75;100.00;67635.44;4953958;28;20057;-81
2022/09/20 04:28:30;;;;;;;15.60;7.85;;;;;;;;;;4967279;28;20051;-84
2022/09/20 04:31:16;;;;;;;12.65;7.35;;;;;;;7.85;100.00;67641.47;4965989;28;20039;-85
2022/09/20 04:33:44;;;;;;;13.35;8.35;;;;;;;;;;4969613;28;20047;-85
2022/09/20 04:36:27;;;;;;;18.35;7.88;;;;;;;;;;4971269;28;20055;-85
2022/09/20 04:39:31;;;;;;;16.30;8.23;;;;;;;7.82;100.00;67643.34;4970707;28;20593;-82
2022/09/20 04:42:12;;;;;;;17.77;8.48;;;;;;;;;;4966462;28;20034;-84
2022/09/20 04:45:11;;;;;;;15.93;8.25;;;;;;;7.90;100.00;67651.84;4974147;28;20043;-81
2022/09/20 04:48:03;;;;;;;18.13;8.07;;;;;;;7.88;100.00;67644.88;4963983;28;20106;-82
2022/09/20 04:50:34;;;;;;;17.48;8.23;;;;;;;7.94;100.00;67651.09;4976957;28;20058;-82
2022/09/20 04:52:59;;;;;;;15.02;7.80;;;;;;;;;;4967991;28;20070;-82
2022/09/20 04:55:44;;;;;;;19.77;8.00;;;;;;;7.97;100.00;67661.88;4969414;28;20050;-83
2022/09/20 04:58:35;;;;;;;14.00;8.23;;;;;;;7.99;100.00;67661.47;4967319;28;20308;-83
2022/09/20 05:01:15;;;;;;;15.18;7.50;;;;;;;7.99;100.00;67662.03;4978064;28;20039;-83
2022/09/20 05:04:02;;;;;;;12.90;8.27;;;;;;;8.04;100.00;67667.16;4978144;28;20584;-83
2022/09/20 05:06:28;;;;;;;18.35;8.00;;;;;;;;;;4965771;28;20078;-83
2022/09/20 05:08:56;;;;;;;12.48;8.05;;;;;;;;;;4977894;28;20434;-83
2022/09/20 05:11:46;;;;;;;16.05;8.27;;;;;;;8.16;100.00;67680.72;4967507;28;20054;-84
2022/09/20 05:14:12;;;;;;;14.50;7.57;;;;;;;8.18;100.00;67677.13;4959713;28;20065;-84
2022/09/20 05:16:56;;;;;;;16.13;7.05;;;;;;;;;;4958603;28;20050;-85
2022/09/20 05:19:42;;;;;;;12.68;7.28;;;;;;;;;;4952176;28;20055;-84
2022/09/20 05:22:45;;;;;;;17.55;7.78;;;;;;;8.27;100.00;67693.19;4969918;28;20130;-84
2022/09/20 05:25:29;;;;;;;16.58;6.65;;;;;;;8.28;100.00;67694.31;4947876;29;20138;-84
2022/09/20 05:28:03;;;;;;;17.20;7.40;;;;;;;;;;4948186;28;20066;-85
2022/09/20 05:30:46;;;;;;;18.67;7.65;;;;;;;;;;4943241;29;20043;-84
2022/09/20 05:33:28;;;;;;;13.90;6.72;;;;;;;8.43;100.00;67710.78;4946714;29;20450;-85
2022/09/20 05:36:04;;;;;;;11.85;7.00;;;;;;;;;;4950012;28;20049;-84
2022/09/20 05:38:44;;;;;;;14.00;6.43;;;;;;;;;;4965081;28;20529;-84
2022/09/20 05:41:23;;;;;;;13.20;6.63;;;;;;;8.51;100.00;67719.84;4967577;28;20055;-85
2022/09/20 05:43:51;;;;;;;14.20;7.40;;;;;;;;;;4958824;28;20047;-84
2022/09/20 05:46:20;;;;;;;18.23;6.97;;;;;;;;;;4970346;28;20057;-84
2022/09/20 05:48:57;;;;;;;17.27;7.93;;;;;;;8.59;100.00;67723.03;4973422;28;20753;-84
2022/09/20 05:51:52;;;;;;;15.43;6.30;;;;;;;8.61;100.00;67724.75;4962960;28;20057;-84
2022/09/20 05:54:42;;;;;;;15.82;7.65;;;;;;;8.68;100.00;67738.53;4959942;28;20097;-84
2022/09/20 05:57:20;;;;;;;13.05;7.00;;;;;;;8.64;100.00;67726.03;4981709;28;20034;-84
2022/09/20 06:00:18;;;;;;;13.75;7.80;;;;;;;8.73;100.00;67744.19;4933775;28;20051;-84
2022/09/20 06:03:03;;;;;;;17.55;7.88;;;;;;;8.77;100.00;67743.41;4952200;28;20048;-84
2022/09/20 06:05:32;;;;;;;12.52;7.25;;;;;;;;;;4965751;28;20426;-85
2022/09/20 06:08:15;;;;;;;19.38;10.15;;;;;;;8.85;100.00;67751.91;4969316;28;20051;-84
2022/09/20 06:11:01;;;;;;;13.25;7.15;;;;;;;8.84;100.00;67750.22;4966681;28;20458;-84
2022/09/20 06:13:38;;;;;;;15.98;8.52;;;;;;;;;;4950404;28;20375;-84
2022/09/20 06:16:06;;;;;;;16.67;8.10;;;;;;;8.91;100.00;67758.72;4967248;28;20101;-85
2022/09/20 06:18:35;;;;;;;19.48;7.00;;;;;;;8.93;100.00;67765.72;4968138;28;20545;-85
2022/09/20 06:21:19;;;;;;;17.73;7.55;;;;;;;;;;4950653;28;20047;-84
2022/09/20 06:23:44;;;;;;;13.52;7.97;;;;;;;9.05;100.00;67779.31;4966891;28;20178;-84
2022/09/20 06:26:16;;;;;;;15.20;6.95;;;;;;;;;;4968460;28;20318;-85
2022/09/20 06:28:44;;;;;;;18.77;7.40;;;;;;;;;;4968763;28;20518;-85
2022/09/20 06:31:10;;;;;;;17.33;6.40;;;;;;;;;;4965529;28;20073;-85
2022/09/20 06:33:53;;;;;;;12.05;7.22;;;;;;;9.21;100.00;67792.16;4951767;28;20134;-85
2022/09/20 06:41:56;;;;;;;16.63;7.18;;;;;;;;;;4969366;28;20741;-85
2022/09/20 06:44:22;;;;;;;12.02;6.40;;;;;;;;;;4963031;28;20051;-84
2022/09/20 06:46:47;;;;;;;14.27;7.63;;;;;;;9.43;100.00;67815.94;4964287;28;20045;-85
2022/09/20 06:49:12;;;;;;;10.73;5.45;;;;;;;9.44;100.00;67817.66;4967946;28;20031;-84
2022/09/20 06:51:38;;;;;;;10.55;6.68;;;;;;;9.50;100.00;67823.91;4963395;28;20078;-84
2022/09/20 06:54:05;;;;;;;15.98;6.90;;;;;;;;;;4951659;28;20046;-84
2022/09/20 06:56:35;;;;;;;14.77;7.15;;;;;;;9.61;100.00;67835.78;4959899;28;20134;-85
2022/09/20 06:59:09;;;;;;;14.18;6.72;;;;;;;9.63;100.00;67835.97;4968514;28;20038;-85
2022/09/20 07:01:34;;;;;;;11.70;5.95;;;;;;;;;;4968030;28;20116;-85
2022/09/20 07:04:00;;;;;;;13.90;6.65;;;;;;;9.78;100.00;67859.81;4967205;28;20338;-83
2022/09/20 07:06:26;;;;;;;9.82;5.50;;;;;;;;;;4950262;28;20043;-85
2022/09/20 07:08:51;;;;;;;9.82;5.60;;;;;;;;;;4967722;28;20502;-85
2022/09/20 07:11:16;;;;;;;12.70;6.05;;;;;;;;;;4966294;28;20049;-84
2022/09/20 07:13:42;;;;;;;11.02;6.00;;;;;;;;;;4968750;28;20614;-85
2022/09/20 07:16:10;;;;;;;10.23;5.07;;;;;;;;;;4967062;28;20043;-85
2022/09/20 07:18:35;;;;;;;15.65;6.60;;;;;;;;;;4966695;28;20055;-85
2022/09/20 07:21:00;;;;;;;12.60;5.70;;;;;;;;;;4967519;28;20039;-85
2022/09/20 07:23:28;;;;;;;14.00;6.47;;;;;;;;;;4969115;28;20046;-85
2022/09/20 07:25:56;;;;;;;12.88;5.93;;;;;;;10.06;100.00;67886.25;4967448;28;20042;-85
2022/09/20 07:28:22;;;;;;;13.50;5.75;;;;;;;;;;4967076;28;20047;-85
2022/09/20 07:30:48;;;;;;;9.27;5.20;;;;;;;;;;4967973;28;20126;-85
2022/09/20 07:33:19;;;;;;;10.10;4.90;;;;;;;10.25;100.00;67906.69;4967897;28;20103;-85
2022/09/20 07:35:45;;;;;;;10.35;5.30;;;;;;;;;;4967811;28;20150;-86
2022/09/20 07:38:11;;;;;;;8.45;4.72;;;;;;;;;;4968391;28;20514;-86
2022/09/20 07:40:36;;;;;;;11.20;5.03;;;;;;;10.68;100.00;67954.94;4968995;28;20057;-85
2022/09/20 07:43:02;;;;;;;7.47;4.05;;;;;;;10.77;100.00;67969.91;4966571;28;20035;-85
2022/09/20 07:45:27;;;;;;;12.23;4.07;;;;;;;10.88;100.00;67977.06;4967297;28;20053;-85
2022/09/20 07:47:53;;;;;;;9.80;3.80;;;;;;;;;;4965862;28;20066;-85
2022/09/20 07:50:18;;;;;;;10.13;3.00;;;;;;;11.09;100.00;67999.75;4966944;28;20047;-85
2022/09/20 07:52:44;;;;;;;6.57;3.08;;;;;;;11.18;100.00;68005.22;4966955;28;20038;-85
2022/09/20 07:55:09;;;;;;;8.98;3.47;;;;;;;;;;4968570;28;20038;-85
2022/09/20 07:57:36;;;;;;;12.23;3.13;;;;;;;;;;4966854;28;20122;-85
2022/09/20 08:00:02;;;;;;;11.60;4.38;;;;;;;;;;4929589;29;20067;-86
2022/09/20 08:02:27;;;;;;;8.40;3.25;;;;;;;11.43;100.00;68037.78;4960439;28;20069;-85
2022/09/20 08:04:52;;;;;;;7.95;3.25;;;;;;;;;;4951789;28;20639;-85
2022/09/20 08:07:17;;;;;;;10.23;4.13;;;;;;;11.58;100.00;68054.25;4966194;28;20078;-85
2022/09/20 08:09:43;;;;;;;5.88;2.80;;;;;;;11.69;100.00;68064.09;4966059;28;20042;-84
2022/09/20 08:12:08;;;;;;;7.35;2.50;;;;;;;11.76;100.00;68072.03;4965164;28;20039;-85
2022/09/20 08:14:34;;;;;;;8.60;2.90;;;;;;;;;;4969340;28;20105;-85
2022/09/20 08:16:59;;;;;;;5.05;2.67;;;;;;;11.90;100.00;68090.63;4937740;28;20035;-84
2022/09/20 08:19:25;;;;;;;7.57;2.58;;;;;;;;;;4947765;29;20032;-84
2022/09/20 08:21:54;;;;;;;10.52;2.88;;;;;;;11.86;99.26;68083.41;4968558;28;20058;-84
2022/09/20 08:24:19;;;;;;;6.15;2.38;;;;;;;;;;4973913;28;20046;-85
2022/09/20 08:26:44;;;;;;;5.13;2.33;;;;;;;;;;4988895;28;20030;-84
2022/09/20 08:29:10;;;;;;;7.35;2.33;;;;;;;11.98;98.88;68103.91;4970973;28;20050;-84
2022/09/20 08:31:40;;;;;;;6.32;2.80;;;;;;;12.12;99.84;68111.81;4967148;28;20046;-85
2022/09/20 08:34:08;;;;;;;7.22;2.47;;;;;;;12.10;98.60;68112.22;4967617;28;20513;-83
2022/09/20 08:36:37;;;;;;;7.35;2.92;;;;;;;12.15;98.66;68117.91;4943708;28;20035;-85
2022/09/20 08:39:03;;;;;;;6.45;2.55;;;;;;;12.18;97.78;68118.63;4971031;28;20122;-84
2022/09/20 08:41:56;;;;;;;6.68;2.35;;;;;;;12.18;97.80;68121.88;4960219;28;20054;-85
2022/09/20 08:44:25;;;;;;;7.70;2.45;;;;;;;12.18;97.04;68121.31;4957167;28;20044;-85
2022/09/20 08:47:02;;;;;;;9.00;2.55;;;;;;;12.21;97.52;68124.72;4945258;28;20047;-84
2022/09/20 08:49:29;;;;;;;6.75;2.72;;;;;;;12.30;98.67;68134.94;4968163;28;20034;-85
2022/09/20 08:51:57;;;;;;;6.28;2.22;;;;;;;12.34;97.95;68144.81;4957365;28;20094;-84
2022/09/20 08:54:24;;;;;;;5.00;1.85;;;;;;;12.34;96.78;68139.50;4981199;28;20044;-85
2022/09/20 08:56:50;;;;;;;8.05;2.03;;;;;;;12.38;97.37;68144.03;4951849;28;20039;-84
2022/09/20 08:59:18;;;;;;;5.53;2.28;;;;;;;;;;4952783;28;20073;-84
2022/09/20 09:01:48;;;;;;;7.20;2.20;;;;;;;12.51;97.10;68158.22;4954394;28;20550;-85
2022/09/20 09:04:20;;;;;;;6.03;1.83;;;;;;;12.50;95.89;68156.53;4967540;28;20680;-84
2022/09/20 09:06:46;;;;;;;4.13;2.00;;;;;;;;;;4967635;28;20546;-83
2022/09/20 09:09:18;;;;;;;6.13;2.35;;;;;;;12.61;95.50;68174.38;4954532;28;20039;-84
2022/09/20 09:11:44;;;;;;;5.22;2.50;;;;;;;12.69;96.65;68178.13;4971068;28;20141;-84
2022/09/20 09:14:47;;;;;;;8.48;4.30;;;;;;;12.74;96.52;68183.81;4970061;28;20043;-84
2022/09/20 09:17:13;;;;;;;15.82;6.03;;;;;;;;;;4970381;28;20054;-85
2022/09/20 09:20:14;;;;;;;22.92;11.40;;;;;;;12.77;94.93;68186.66;4972651;28;20045;-84
2022/09/20 09:22:42;;;;;;;5.97;3.22;;;;;;;12.82;95.01;68192.91;4948865;28;20047;-84
2022/09/20 09:25:10;;;;;;;6.55;1.98;;;;;;;;;;4972250;28;20069;-85
2022/09/20 09:27:54;;;;;;;4.55;1.90;;;;;;;12.94;92.79;68200.06;4970450;28;20047;-85
2022/09/20 09:30:26;;;;;;;3.85;1.50;;;;;;;12.99;93.07;68208.41;4965717;28;20043;-85
2022/09/20 09:33:12;;;;;;;5.68;1.40;;;;;;;13.07;90.80;68220.75;4959648;28;20055;-85
2022/09/20 09:35:37;;;;;;;4.00;1.50;;;;;;;;;;4965544;28;20066;-85
2022/09/20 09:38:02;;;;;;;5.63;1.50;;;;;;;13.15;89.94;68228.72;4970937;28;20482;-85
2022/09/20 09:40:30;;;;;;;5.28;1.63;;;;;;;13.19;88.50;68239.19;4971521;28;20799;-85
2022/09/20 09:42:57;;;;;;;4.93;1.50;;;;;;;;;;4970513;28;20050;-86
2022/09/20 09:45:27;;;;;;;5.35;1.48;;;;;;;;;;4971291;28;20110;-85
2022/09/20 09:47:53;;;;;;;5.20;1.70;;;;;;;;;;4971209;28;20062;-85
2022/09/20 09:50:29;;;;;;;6.57;2.15;;;;;;;13.47;87.90;68264.56;4960257;28;20492;-85
2022/09/20 09:53:08;;;;;;;5.75;1.83;;;;;;;13.51;87.94;68267.00;4950394;29;20644;-85
2022/09/20 09:55:39;;;;;;;4.30;1.23;;;;;;;;;;4946456;28;20042;-86
2022/09/20 09:58:30;;;;;;;4.53;1.00;;;;;;;13.54;83.25;68278.44;4964481;28;20117;-85
2022/09/20 10:00:58;;;;;;;5.13;1.10;;;;;;;13.71;84.62;68285.94;4966036;28;20136;-85
2022/09/20 10:03:52;;;;;;;6.60;1.08;;;;;;;13.67;84.36;68287.31;4954329;28;20054;-86
2022/09/20 10:06:24;;;;;;;6.32;1.77;;;;;;;13.71;85.15;68291.84;4968890;28;20043;-85
2022/09/20 10:09:08;;;;;;;4.13;1.00;;;;;;;;;;4968735;28;20047;-85
2022/09/20 10:12:07;;;;;;;3.58;1.10;;;;;;;14.05;82.77;68329.41;4971711;28;20512;-85
2022/09/20 10:15:12;;;;;;;6.82;1.42;;;;;;;14.18;81.92;68344.22;4983095;28;20051;-86
2022/09/20 10:17:49;;;;;;;2.92;0.80;;;;;;;13.95;81.65;68318.59;4982176;28;20112;-85
2022/09/20 10:20:21;;;;;;;3.40;1.00;;;;;;;;;;4972783;28;20051;-86
2022/09/20 10:22:59;;;;;;;3.80;1.02;;;;;;;14.34;80.25;68361.84;4968555;28;20109;-85
2022/09/20 10:25:37;;;;;;;6.32;1.50;;;;;;;14.39;79.37;68361.63;4973758;28;20073;-86
2022/09/20 10:28:47;;;;;;;3.90;1.17;;;;;;;14.45;79.98;68374.38;4973019;28;20089;-86
2022/09/20 10:31:21;;;;;;;4.07;1.27;;;;;;;14.44;80.06;68372.66;4970732;28;20068;-86
2022/09/20 10:33:58;;;;;;;3.38;0.82;;;;;;;14.53;78.55;68382.34;4967526;28;20054;-85
2022/09/20 10:36:57;;;;;;;3.90;0.90;;;;;;;14.36;79.58;68363.56;4969359;28;20070;-86
2022/09/20 10:39:26;;;;;;;;;;;;;;;14.50;80.14;68376.81;4922760;28;20043;-85
2022/09/20 10:45:30;;;;;;;3.08;0.77;;;;;;;14.88;76.66;68421.63;4949534;28;20686;-85
2022/09/20 10:48:08;;;;;;;4.97;1.05;;;;;;;15.00;75.06;68429.94;4950068;28;20062;-86
2022/09/20 10:50:57;;;;;;;3.55;1.20;;;;;;;14.83;76.51;68415.94;4957741;28;20043;-85
2022/09/20 10:54:07;;;;;;;5.33;1.00;;;;;;;14.67;76.91;68395.59;4933806;29;20122;-86
2022/09/20 10:56:48;;;;;;;3.13;1.13;;;;;;;14.63;76.57;68394.31;4945097;28;20039;-86
2022/09/20 10:59:50;;;;;;;5.05;1.08;;;;;;;14.77;75.67;68409.13;4968719;28;20094;-85
2022/09/20 11:02:34;;;;;;;7.22;1.33;;;;;;;14.69;77.07;68397.31;4909030;29;20039;-85
2022/09/20 11:05:17;;;;;;;4.22;0.93;;;;;;;14.72;71.55;68403.41;4963863;28;20050;-86
2022/09/20 11:07:46;;;;;;;5.45;0.93;;;;;;;;;;4965190;28;20062;-85
2022/09/20 11:10:23;;;;;;;5.32;1.02;;;;;;;14.71;73.74;68402.28;4949822;28;20055;-87
2022/09/20 11:12:58;;;;;;;4.35;0.80;;;;;;;14.62;73.76;68392.59;4967627;28;20045;-87
2022/09/20 11:15:31;;;;;;;3.40;0.98;;;;;;;14.86;75.29;68419.91;4930106;28;20471;-87
2022/09/20 11:18:13;;;;;;;3.05;1.00;;;;;;;15.09;74.46;68439.63;4926593;29;20043;-86
2022/09/20 11:20:44;;;;;;;5.43;0.90;;;;;;;15.16;73.56;68452.38;4943499;29;20499;-86
2022/09/20 11:23:17;;;;;;;3.58;0.98;;;;;;;;;;4944602;29;20074;-86
2022/09/20 11:25:50;;;;;;;5.65;1.38;;;;;;;14.81;72.67;68411.53;4927540;29;20047;-86
2022/09/20 11:28:21;;;;;;;3.33;1.00;;;;;;;14.81;73.10;68414.22;4948697;28;20055;-86
2022/09/20 11:31:00;;;;;;;4.60;1.10;;;;;;;14.65;72.29;68393.34;4945729;29;20054;-86
2022/09/20 11:33:56;;;;;;;5.78;1.15;;;;;;;14.55;74.26;68379.84;4907082;29;20531;-86
2022/09/20 11:36:43;;;;;;;6.10;1.17;;;;;;;14.37;75.54;68365.25;4901480;29;20043;-87
2022/09/20 11:39:22;;;;;;;3.03;0.82;;;;;;;14.26;77.72;68349.50;4924245;28;20047;-87
2022/09/20 11:41:53;;;;;;;3.33;1.00;;;;;;;14.11;80.30;68335.66;4949364;28;20043;-86
2022/09/20 11:44:20;;;;;;;3.92;0.93;;;;;;;14.00;81.46;68323.72;4964595;28;20066;-87
2022/09/20 11:47:01;;;;;;;4.70;0.90;;;;;;;13.80;83.09;68301.53;4972993;28;20518;-86
2022/09/20 11:49:42;;;;;;;6.35;1.23;;;;;;;13.50;86.01;68267.97;4973643;28;20046;-86
2022/09/20 11:52:22;;;;;;;3.92;1.20;;;;;;;13.25;88.09;68235.31;4966718;28;20054;-87
2022/09/20 11:55:00;;;;;;;7.30;1.40;;;;;;;;;;4942711;29;20055;-87
2022/09/20 11:57:27;;;;;;;5.53;2.00;;;;;;;12.97;93.11;68206.72;4964346;28;20050;-87
2022/09/20 11:59:57;;;;;;;4.82;1.30;;;;;;;12.85;94.16;68195.75;4946946;28;20122;-87
2022/09/20 12:02:47;;;;;;;4.28;1.35;;;;;;;12.86;96.50;68196.88;4948830;28;20043;-87
2022/09/20 12:05:23;;;;;;;7.68;1.38;;;;;;;12.77;98.17;68187.22;4947774;28;20054;-87
2022/09/20 12:07:53;;;;;;;7.85;1.63;;;;;;;12.74;98.70;68181.13;4946786;28;20045;-89
2022/09/20 12:10:26;;;;;;;4.80;1.33;;;;;;;12.75;99.20;68184.94;4950795;28;20418;-88
2022/09/20 12:12:58;;;;;;;4.22;1.70;;;;;;;;;;4966837;28;20106;-87
2022/09/20 12:15:37;;;;;;;3.95;1.27;;;;;;;;;;4944434;28;20407;-87
2022/09/20 12:18:15;;;;;;;6.10;2.08;;;;;;;;;;4964398;28;20406;-87
2022/09/20 12:20:41;;;;;;;7.88;2.30;;;;;;;;;;4949847;28;20386;-86
2022/09/20 12:23:38;;;;;;;7.05;1.80;;;;;;;13.14;99.03;68227.56;4964621;28;20109;-86
2022/09/20 12:26:26;;;;;;;7.10;1.40;;;;;;;13.21;97.71;68233.44;4963742;28;20057;-87
2022/09/20 12:28:57;;;;;;;4.45;1.58;;;;;;;13.30;96.67;68254.38;4952437;28;20046;-86
2022/09/20 12:31:30;;;;;;;4.78;1.33;;;;;;;;;;4969666;28;20466;-86
2022/09/20 12:33:58;;;;;;;4.88;1.75;;;;;;;;;;4969629;28;20081;-86
2022/09/20 12:36:26;;;;;;;5.63;2.22;;;;;;;13.75;97.25;68293.16;4950314;29;20105;-86
2022/09/20 12:39:09;;;;;;;4.53;1.83;;;;;;;14.02;96.67;68331.34;4961340;28;20073;-86
2022/09/20 12:41:53;;;;;;;8.20;1.50;;;;;;;14.42;92.38;68370.94;4966560;28;20047;-87
2022/09/20 12:44:38;;;;;;;3.65;0.90;;;;;;;14.28;87.61;68354.44;4969248;28;20077;-86
2022/09/20 12:47:07;;;;;;;5.75;1.40;;;;;;;14.22;86.32;68348.75;4951132;28;20073;-87
2022/09/20 12:55:28;;;;;;;4.63;0.93;;;;;;;14.54;84.31;68383.50;4950276;28;20058;-87
2022/09/20 12:58:00;;;;;;;4.38;1.00;;;;;;;14.51;79.29;68385.97;4949431;28;20054;-87
2022/09/20 13:00:39;;;;;;;3.97;1.00;;;;;;;14.75;82.99;68404.16;4952146;28;20047;-86
2022/09/20 13:03:23;;;;;;;4.70;1.05;;;;;;;15.23;76.62;68460.94;4966032;28;20560;-86
2022/09/20 13:06:11;;;;;;;5.43;0.93;;;;;;;15.42;71.53;68479.31;4950366;28;20043;-86
2022/09/20 13:08:50;;;;;;;4.60;0.85;;;;;;;;;;4940113;28;20053;-85
2022/09/20 13:11:37;;;;;;;2.95;0.85;;;;;;;15.36;70.75;68480.50;4961508;28;20061;-85
2022/09/20 13:14:12;;;;;;;7.45;0.90;;;;;;;15.45;73.87;68485.41;4959056;28;20047;-85
2022/09/20 13:16:50;;;;;;;5.05;1.23;;;;;;;15.20;71.05;68454.81;4948437;28;20042;-86